Portada
METAR-TAF:

METAR-TAF

Aeroports :

Abu Dhabi, Emirats Àrabs Units

latitud: 24-26N, longitud: 054-28E, altitud: 5 m

Observació

L'informe es va fer fa 45 minuts, a les 17:00 UTC
Vent 4 kt del Oest/Sud-Oest, variant entre Sud/Sud-Oest i Oest
Temperatura 35°C
Humitat 71%
Pressió 994 hPa
Visibilitat 10 km o més
sense núvols per sota de 1500 mi sense presència de cumulonimbus.

METAR: OMAD 121700Z 24004KT 200V280 CAVOK 35/29 Q0994 NOSIG

Hora: 21:45 (17:45 UTC)

Pronòstic

L'informe es va fer fa 45 minuts, a les 17:00 UTC
Pronòstic vàlid del 12 a les 18 UTC al 14 a les 00 UTC
Vent 5 kt del Oest/Sud-Oest
Visibilitat: 8000 m
Evolucionant progressivament
l' 12 a les 21 UTC al 12 a les 23 UTC
Vent 5 kt del Sud
Evolucionant progressivament
l' 13 a les 08 UTC al 13 a les 10 UTC
Vent 10 kt del Nord-Oest
Evolucionant progressivament
l' 13 a les 21 UTC al 13 a les 23 UTC
Vent 5 kt del Sud

TAF: OMAD 121700Z 1218/1400 24005KT 8000 NSC BECMG 1221/1223 18005KT BECMG 1308/1310 32010KT BECMG 1321/1323 18005KT

Observacions i pronòstics meteorològics de més de 4000 aeroports (METAR i TAF).

Les estacions disponibles són els punts grocs i vermells al mapa.

Posi el ratolí al punt desitjat per veure el nom de l'estació.

Feu clic per veure les observacions i els pronòstics meteorològics.

Per canviar el mapa: feu clic els botons verds amb una creu de color negre per apropar; al botó verd amb un guió per allunyar la imatge; o en les fletxes verdes per a mapes adjacents.


METAR-TAF: